sensor_id;sensor_type;location;lat;lon;timestamp;pressure;altitude;pressure_sealevel;temperature;humidity
25722;BME280;13578;53.450;15.496;2023-05-23T00:02:51;99635.41;;;12.51;100.00
25722;BME280;13578;53.450;15.496;2023-05-23T00:05:52;99636.16;;;12.43;100.00
25722;BME280;13578;53.450;15.496;2023-05-23T00:08:53;99634.88;;;12.37;100.00
25722;BME280;13578;53.450;15.496;2023-05-23T00:11:54;99632.09;;;12.47;100.00
25722;BME280;13578;53.450;15.496;2023-05-23T00:14:54;99625.00;;;12.45;100.00
25722;BME280;13578;53.450;15.496;2023-05-23T00:17:55;99625.31;;;12.42;100.00
25722;BME280;13578;53.450;15.496;2023-05-23T00:20:56;99624.44;;;12.41;100.00
25722;BME280;13578;53.450;15.496;2023-05-23T00:23:58;99626.63;;;12.37;100.00
25722;BME280;13578;53.450;15.496;2023-05-23T00:26:59;99617.22;;;12.40;100.00
25722;BME280;13578;53.450;15.496;2023-05-23T00:30:00;99620.66;;;12.42;100.00
25722;BME280;13578;53.450;15.496;2023-05-23T00:33:00;99614.94;;;12.35;100.00
25722;BME280;13578;53.450;15.496;2023-05-23T00:36:01;99616.97;;;12.33;100.00
25722;BME280;13578;53.450;15.496;2023-05-23T00:39:02;99614.28;;;12.23;100.00
25722;BME280;13578;53.450;15.496;2023-05-23T00:42:04;99621.50;;;12.25;100.00
25722;BME280;13578;53.450;15.496;2023-05-23T00:45:06;99622.25;;;12.17;100.00
25722;BME280;13578;53.450;15.496;2023-05-23T00:48:07;99612.69;;;12.21;100.00
25722;BME280;13578;53.450;15.496;2023-05-23T00:51:08;99617.41;;;12.29;100.00
25722;BME280;13578;53.450;15.496;2023-05-23T00:54:09;99615.78;;;12.36;100.00
25722;BME280;13578;53.450;15.496;2023-05-23T00:57:10;99613.31;;;12.15;100.00
25722;BME280;13578;53.450;15.496;2023-05-23T01:00:14;99614.41;;;12.04;100.00
25722;BME280;13578;53.450;15.496;2023-05-23T01:03:15;99619.00;;;12.03;100.00
25722;BME280;13578;53.450;15.496;2023-05-23T01:06:17;99609.56;;;12.06;100.00
25722;BME280;13578;53.450;15.496;2023-05-23T01:09:18;99603.78;;;12.09;100.00
25722;BME280;13578;53.450;15.496;2023-05-23T01:15:39;99599.69;;;12.13;100.00
25722;BME280;13578;53.450;15.496;2023-05-23T01:18:47;99596.81;;;12.15;100.00
25722;BME280;13578;53.450;15.496;2023-05-23T01:21:52;99592.88;;;12.17;100.00
25722;BME280;13578;53.450;15.496;2023-05-23T01:28:20;99591.25;;;12.25;100.00
25722;BME280;13578;53.450;15.496;2023-05-23T01:31:23;99590.06;;;12.27;100.00
25722;BME280;13578;53.450;15.496;2023-05-23T01:34:24;99593.38;;;12.31;100.00
25722;BME280;13578;53.450;15.496;2023-05-23T01:37:25;99588.91;;;12.30;100.00
25722;BME280;13578;53.450;15.496;2023-05-23T01:40:25;99587.63;;;12.24;100.00
25722;BME280;13578;53.450;15.496;2023-05-23T01:43:26;99576.50;;;12.16;100.00
25722;BME280;13578;53.450;15.496;2023-05-23T01:46:28;99582.00;;;12.16;100.00
25722;BME280;13578;53.450;15.496;2023-05-23T01:49:30;99588.78;;;12.21;100.00
25722;BME280;13578;53.450;15.496;2023-05-23T01:52:32;99574.81;;;12.15;100.00
25722;BME280;13578;53.450;15.496;2023-05-23T01:55:33;99580.91;;;12.08;100.00
25722;BME280;13578;53.450;15.496;2023-05-23T01:58:34;99576.56;;;12.06;100.00
25722;BME280;13578;53.450;15.496;2023-05-23T02:01:36;99570.44;;;12.12;100.00
25722;BME280;13578;53.450;15.496;2023-05-23T02:04:37;99567.97;;;12.19;100.00
25722;BME280;13578;53.450;15.496;2023-05-23T02:07:38;99570.41;;;12.22;100.00
25722;BME280;13578;53.450;15.496;2023-05-23T02:10:38;99572.13;;;12.23;100.00
25722;BME280;13578;53.450;15.496;2023-05-23T02:13:39;99564.28;;;12.28;100.00
25722;BME280;13578;53.450;15.496;2023-05-23T02:16:40;99561.75;;;12.35;100.00
25722;BME280;13578;53.450;15.496;2023-05-23T02:19:41;99559.56;;;12.38;100.00
25722;BME280;13578;53.450;15.496;2023-05-23T02:22:41;99560.28;;;12.41;100.00
25722;BME280;13578;53.450;15.496;2023-05-23T02:25:42;99565.88;;;12.49;100.00
25722;BME280;13578;53.450;15.496;2023-05-23T02:28:43;99568.78;;;12.47;100.00
25722;BME280;13578;53.450;15.496;2023-05-23T02:31:44;99560.28;;;12.59;100.00
25722;BME280;13578;53.450;15.496;2023-05-23T02:34:44;99561.78;;;12.53;100.00
25722;BME280;13578;53.450;15.496;2023-05-23T02:37:50;99552.75;;;12.61;100.00
25722;BME280;13578;53.450;15.496;2023-05-23T02:40:51;99559.75;;;12.55;100.00
25722;BME280;13578;53.450;15.496;2023-05-23T02:43:53;99553.13;;;12.48;100.00
25722;BME280;13578;53.450;15.496;2023-05-23T02:46:54;99546.78;;;12.47;100.00
25722;BME280;13578;53.450;15.496;2023-05-23T02:49:54;99547.88;;;12.54;100.00
25722;BME280;13578;53.450;15.496;2023-05-23T02:52:55;99537.88;;;12.53;100.00
25722;BME280;13578;53.450;15.496;2023-05-23T02:55:56;99540.09;;;12.50;100.00
25722;BME280;13578;53.450;15.496;2023-05-23T02:58:56;99533.06;;;12.37;100.00
25722;BME280;13578;53.450;15.496;2023-05-23T03:01:57;99537.09;;;12.43;100.00
25722;BME280;13578;53.450;15.496;2023-05-23T03:04:58;99525.53;;;12.58;100.00
25722;BME280;13578;53.450;15.496;2023-05-23T03:07:58;99528.75;;;12.53;100.00
25722;BME280;13578;53.450;15.496;2023-05-23T03:10:59;99530.72;;;12.61;100.00
25722;BME280;13578;53.450;15.496;2023-05-23T03:14:00;99535.50;;;12.59;100.00
25722;BME280;13578;53.450;15.496;2023-05-23T03:17:00;99524.59;;;12.67;100.00
25722;BME280;13578;53.450;15.496;2023-05-23T03:20:03;99526.88;;;12.71;100.00
25722;BME280;13578;53.450;15.496;2023-05-23T03:23:05;99532.03;;;12.75;100.00
25722;BME280;13578;53.450;15.496;2023-05-23T03:26:05;99517.13;;;12.77;100.00
25722;BME280;13578;53.450;15.496;2023-05-23T03:29:06;99521.91;;;12.75;100.00
25722;BME280;13578;53.450;15.496;2023-05-23T03:32:07;99523.63;;;12.76;100.00
25722;BME280;13578;53.450;15.496;2023-05-23T03:35:08;99521.50;;;12.88;100.00
25722;BME280;13578;53.450;15.496;2023-05-23T03:38:08;99524.28;;;12.96;100.00
25722;BME280;13578;53.450;15.496;2023-05-23T03:41:09;99523.44;;;12.96;100.00
25722;BME280;13578;53.450;15.496;2023-05-23T03:44:10;99504.69;;;12.99;100.00
25722;BME280;13578;53.450;15.496;2023-05-23T03:47:11;99509.72;;;13.04;100.00
25722;BME280;13578;53.450;15.496;2023-05-23T03:50:11;99506.75;;;12.97;100.00
25722;BME280;13578;53.450;15.496;2023-05-23T03:53:12;99503.38;;;12.85;100.00
25722;BME280;13578;53.450;15.496;2023-05-23T03:56:12;99509.59;;;12.87;100.00
25722;BME280;13578;53.450;15.496;2023-05-23T03:59:13;99499.66;;;12.95;100.00
25722;BME280;13578;53.450;15.496;2023-05-23T04:02:14;99497.94;;;12.94;100.00
25722;BME280;13578;53.450;15.496;2023-05-23T04:05:14;99494.53;;;13.00;100.00
25722;BME280;13578;53.450;15.496;2023-05-23T04:08:15;99492.84;;;13.07;100.00
25722;BME280;13578;53.450;15.496;2023-05-23T04:11:16;99486.19;;;13.10;100.00
25722;BME280;13578;53.450;15.496;2023-05-23T04:14:17;99489.53;;;13.22;100.00
25722;BME280;13578;53.450;15.496;2023-05-23T04:17:19;99483.09;;;13.39;100.00
25722;BME280;13578;53.450;15.496;2023-05-23T04:20:20;99476.44;;;13.50;100.00
25722;BME280;13578;53.450;15.496;2023-05-23T04:23:21;99479.44;;;13.65;100.00
25722;BME280;13578;53.450;15.496;2023-05-23T04:26:21;99478.81;;;13.79;100.00
25722;BME280;13578;53.450;15.496;2023-05-23T04:29:22;99474.38;;;13.95;100.00
25722;BME280;13578;53.450;15.496;2023-05-23T04:32:25;99470.56;;;14.04;100.00
25722;BME280;13578;53.450;15.496;2023-05-23T04:35:26;99467.81;;;14.04;100.00
25722;BME280;13578;53.450;15.496;2023-05-23T04:38:29;99477.50;;;14.08;100.00
25722;BME280;13578;53.450;15.496;2023-05-23T04:41:31;99479.06;;;14.19;100.00
25722;BME280;13578;53.450;15.496;2023-05-23T04:44:32;99477.19;;;14.28;100.00
25722;BME280;13578;53.450;15.496;2023-05-23T04:47:32;99479.94;;;14.28;100.00
25722;BME280;13578;53.450;15.496;2023-05-23T04:50:34;99478.22;;;14.27;100.00
25722;BME280;13578;53.450;15.496;2023-05-23T04:53:35;99480.13;;;14.26;100.00
25722;BME280;13578;53.450;15.496;2023-05-23T04:56:36;99483.22;;;14.32;100.00
25722;BME280;13578;53.450;15.496;2023-05-23T04:59:37;99484.28;;;14.39;100.00
25722;BME280;13578;53.450;15.496;2023-05-23T05:02:38;99484.09;;;14.40;100.00
25722;BME280;13578;53.450;15.496;2023-05-23T05:05:39;99484.81;;;14.51;100.00
25722;BME280;13578;53.450;15.496;2023-05-23T05:08:40;99482.88;;;14.51;100.00
25722;BME280;13578;53.450;15.496;2023-05-23T05:11:40;99480.66;;;14.63;100.00
25722;BME280;13578;53.450;15.496;2023-05-23T05:14:41;99479.13;;;14.69;100.00
25722;BME280;13578;53.450;15.496;2023-05-23T05:17:42;99484.81;;;14.84;100.00
25722;BME280;13578;53.450;15.496;2023-05-23T05:20:43;99483.25;;;14.89;100.00
25722;BME280;13578;53.450;15.496;2023-05-23T05:23:44;99483.25;;;14.98;100.00
25722;BME280;13578;53.450;15.496;2023-05-23T05:26:45;99479.28;;;15.00;100.00
25722;BME280;13578;53.450;15.496;2023-05-23T05:29:46;99480.16;;;15.01;100.00
25722;BME280;13578;53.450;15.496;2023-05-23T05:32:47;99471.69;;;15.11;100.00
25722;BME280;13578;53.450;15.496;2023-05-23T05:35:48;99469.56;;;15.21;100.00
25722;BME280;13578;53.450;15.496;2023-05-23T05:38:50;99465.75;;;15.22;100.00
25722;BME280;13578;53.450;15.496;2023-05-23T05:41:52;99470.56;;;15.36;100.00
25722;BME280;13578;53.450;15.496;2023-05-23T05:44:53;99468.28;;;15.48;100.00
25722;BME280;13578;53.450;15.496;2023-05-23T05:47:53;99468.75;;;15.60;100.00
25722;BME280;13578;53.450;15.496;2023-05-23T05:50:54;99466.28;;;15.73;100.00
25722;BME280;13578;53.450;15.496;2023-05-23T05:53:55;99471.75;;;15.90;100.00
25722;BME280;13578;53.450;15.496;2023-05-23T05:56:56;99473.44;;;15.99;100.00
25722;BME280;13578;53.450;15.496;2023-05-23T05:59:56;99468.53;;;16.10;100.00
25722;BME280;13578;53.450;15.496;2023-05-23T06:02:57;99450.38;;;16.30;100.00
25722;BME280;13578;53.450;15.496;2023-05-23T06:05:58;99447.50;;;16.47;100.00
25722;BME280;13578;53.450;15.496;2023-05-23T06:08:58;99451.44;;;16.52;100.00
25722;BME280;13578;53.450;15.496;2023-05-23T06:11:59;99439.13;;;16.55;100.00
25722;BME280;13578;53.450;15.496;2023-05-23T06:15:00;99453.41;;;16.67;100.00
25722;BME280;13578;53.450;15.496;2023-05-23T06:18:01;99443.91;;;16.85;100.00
25722;BME280;13578;53.450;15.496;2023-05-23T06:21:02;99438.69;;;17.05;100.00
25722;BME280;13578;53.450;15.496;2023-05-23T06:24:03;99442.44;;;17.27;100.00
25722;BME280;13578;53.450;15.496;2023-05-23T06:27:03;99456.22;;;17.65;100.00
25722;BME280;13578;53.450;15.496;2023-05-23T06:30:05;99427.94;;;17.91;100.00
25722;BME280;13578;53.450;15.496;2023-05-23T06:33:06;99439.69;;;18.08;100.00
25722;BME280;13578;53.450;15.496;2023-05-23T06:36:06;99435.88;;;18.09;100.00
25722;BME280;13578;53.450;15.496;2023-05-23T06:39:08;99432.75;;;18.19;100.00
25722;BME280;13578;53.450;15.496;2023-05-23T06:42:11;99431.84;;;18.34;100.00
25722;BME280;13578;53.450;15.496;2023-05-23T06:45:12;99428.66;;;18.37;100.00
25722;BME280;13578;53.450;15.496;2023-05-23T06:48:13;99431.44;;;18.37;100.00
25722;BME280;13578;53.450;15.496;2023-05-23T06:51:13;99443.94;;;18.48;100.00
25722;BME280;13578;53.450;15.496;2023-05-23T06:54:14;99432.50;;;18.57;100.00
25722;BME280;13578;53.450;15.496;2023-05-23T06:57:15;99430.66;;;18.65;100.00
25722;BME280;13578;53.450;15.496;2023-05-23T07:00:16;99439.97;;;18.57;100.00
25722;BME280;13578;53.450;15.496;2023-05-23T07:03:17;99429.41;;;18.46;100.00
25722;BME280;13578;53.450;15.496;2023-05-23T07:06:17;99422.91;;;18.38;100.00
25722;BME280;13578;53.450;15.496;2023-05-23T07:09:18;99435.41;;;18.28;100.00
25722;BME280;13578;53.450;15.496;2023-05-23T07:12:19;99438.78;;;18.23;100.00
25722;BME280;13578;53.450;15.496;2023-05-23T07:15:19;99433.03;;;18.24;100.00
25722;BME280;13578;53.450;15.496;2023-05-23T07:18:20;99449.00;;;18.22;100.00
25722;BME280;13578;53.450;15.496;2023-05-23T07:21:21;99440.16;;;18.12;100.00
25722;BME280;13578;53.450;15.496;2023-05-23T07:24:21;99442.25;;;18.10;100.00
25722;BME280;13578;53.450;15.496;2023-05-23T07:27:22;99434.06;;;18.02;100.00
25722;BME280;13578;53.450;15.496;2023-05-23T07:30:23;99434.94;;;18.02;100.00
25722;BME280;13578;53.450;15.496;2023-05-23T07:33:24;99426.66;;;18.09;100.00
25722;BME280;13578;53.450;15.496;2023-05-23T07:36:24;99423.63;;;18.25;100.00
25722;BME280;13578;53.450;15.496;2023-05-23T07:39:25;99423.84;;;18.46;100.00
25722;BME280;13578;53.450;15.496;2023-05-23T07:42:27;99414.34;;;18.62;100.00
25722;BME280;13578;53.450;15.496;2023-05-23T07:45:27;99412.56;;;18.76;100.00
25722;BME280;13578;53.450;15.496;2023-05-23T07:48:28;99407.59;;;18.93;100.00
25722;BME280;13578;53.450;15.496;2023-05-23T07:51:29;99393.69;;;19.28;100.00
25722;BME280;13578;53.450;15.496;2023-05-23T07:54:30;99396.38;;;19.49;100.00
25722;BME280;13578;53.450;15.496;2023-05-23T07:57:30;99374.16;;;19.63;100.00
25722;BME280;13578;53.450;15.496;2023-05-23T08:00:31;99373.94;;;19.64;100.00
25722;BME280;13578;53.450;15.496;2023-05-23T08:03:31;99368.81;;;19.68;100.00
25722;BME280;13578;53.450;15.496;2023-05-23T08:06:32;99379.78;;;19.76;100.00
25722;BME280;13578;53.450;15.496;2023-05-23T08:09:32;99380.75;;;19.97;100.00
25722;BME280;13578;53.450;15.496;2023-05-23T08:12:33;99363.88;;;20.19;100.00
25722;BME280;13578;53.450;15.496;2023-05-23T08:15:34;99369.25;;;20.40;100.00
25722;BME280;13578;53.450;15.496;2023-05-23T08:18:34;99349.53;;;20.42;94.99
25722;BME280;13578;53.450;15.496;2023-05-23T08:21:36;99365.81;;;20.78;97.95
25722;BME280;13578;53.450;15.496;2023-05-23T08:24:36;99370.28;;;21.13;96.48
25722;BME280;13578;53.450;15.496;2023-05-23T08:27:37;99346.66;;;21.29;90.94
25722;BME280;13578;53.450;15.496;2023-05-23T08:30:38;99336.66;;;20.94;88.97
25722;BME280;13578;53.450;15.496;2023-05-23T08:33:38;99346.66;;;21.29;89.57
25722;BME280;13578;53.450;15.496;2023-05-23T08:36:39;99337.19;;;21.30;89.72
25722;BME280;13578;53.450;15.496;2023-05-23T08:39:42;99345.66;;;21.69;91.42
25722;BME280;13578;53.450;15.496;2023-05-23T08:42:43;99349.03;;;21.78;89.43
25722;BME280;13578;53.450;15.496;2023-05-23T08:45:44;99339.13;;;21.82;87.04
25722;BME280;13578;53.450;15.496;2023-05-23T08:48:50;99318.66;;;21.95;82.97
25722;BME280;13578;53.450;15.496;2023-05-23T08:51:55;99327.34;;;22.12;84.21
25722;BME280;13578;53.450;15.496;2023-05-23T08:54:59;99335.22;;;22.21;83.01
25722;BME280;13578;53.450;15.496;2023-05-23T08:58:00;99317.38;;;22.23;81.16
25722;BME280;13578;53.450;15.496;2023-05-23T09:01:02;99324.16;;;22.33;80.92
25722;BME280;13578;53.450;15.496;2023-05-23T09:04:05;99325.66;;;22.36;81.39
25722;BME280;13578;53.450;15.496;2023-05-23T09:07:06;99307.88;;;22.30;76.38
25722;BME280;13578;53.450;15.496;2023-05-23T09:10:08;99310.03;;;22.28;78.47
25722;BME280;13578;53.450;15.496;2023-05-23T09:13:09;99321.75;;;22.12;78.36
25722;BME280;13578;53.450;15.496;2023-05-23T09:16:11;99339.59;;;22.11;82.32
25722;BME280;13578;53.450;15.496;2023-05-23T09:19:12;99318.25;;;21.91;79.86
25722;BME280;13578;53.450;15.496;2023-05-23T09:22:14;99313.28;;;21.93;77.94
25722;BME280;13578;53.450;15.496;2023-05-23T09:25:14;99302.53;;;21.97;76.13
25722;BME280;13578;53.450;15.496;2023-05-23T09:28:15;99315.63;;;21.96;78.39
25722;BME280;13578;53.450;15.496;2023-05-23T09:31:16;99319.78;;;21.87;77.31
25722;BME280;13578;53.450;15.496;2023-05-23T09:34:17;99320.25;;;21.77;78.39
25722;BME280;13578;53.450;15.496;2023-05-23T09:37:18;99304.22;;;21.66;74.76
25722;BME280;13578;53.450;15.496;2023-05-23T09:40:20;99318.34;;;21.71;76.67
25722;BME280;13578;53.450;15.496;2023-05-23T09:43:21;99319.66;;;21.68;77.99
25722;BME280;13578;53.450;15.496;2023-05-23T09:46:21;99327.34;;;21.80;78.81
25722;BME280;13578;53.450;15.496;2023-05-23T09:49:22;99293.09;;;21.91;71.47
25722;BME280;13578;53.450;15.496;2023-05-23T09:52:23;99299.97;;;21.95;71.86
25722;BME280;13578;53.450;15.496;2023-05-23T09:55:24;99285.31;;;22.00;70.15
25722;BME280;13578;53.450;15.496;2023-05-23T09:58:26;99301.84;;;22.01;72.00
25722;BME280;13578;53.450;15.496;2023-05-23T10:01:30;99312.22;;;21.94;72.87
25722;BME280;13578;53.450;15.496;2023-05-23T10:04:34;99325.09;;;21.95;75.02
25722;BME280;13578;53.450;15.496;2023-05-23T10:07:34;99313.97;;;21.88;72.40
25722;BME280;13578;53.450;15.496;2023-05-23T10:13:57;99323.41;;;21.94;74.80
25722;BME280;13578;53.450;15.496;2023-05-23T10:17:07;99333.91;;;21.92;76.26
25722;BME280;13578;53.450;15.496;2023-05-23T10:20:15;99311.84;;;21.84;73.56
25722;BME280;13578;53.450;15.496;2023-05-23T10:23:16;99327.38;;;21.73;73.15
25722;BME280;13578;53.450;15.496;2023-05-23T10:26:17;99359.22;;;21.65;80.04
25722;BME280;13578;53.450;15.496;2023-05-23T10:29:17;99370.56;;;21.64;80.52
25722;BME280;13578;53.450;15.496;2023-05-23T10:32:18;99350.28;;;21.23;77.02
25722;BME280;13578;53.450;15.496;2023-05-23T10:38:45;99357.91;;;20.75;78.83
25722;BME280;13578;53.450;15.496;2023-05-23T10:41:57;99358.09;;;20.60;81.15
25722;BME280;13578;53.450;15.496;2023-05-23T10:45:17;99367.53;;;20.53;82.56
25722;BME280;13578;53.450;15.496;2023-05-23T10:51:37;99376.50;;;20.28;82.12
25722;BME280;13578;53.450;15.496;2023-05-23T10:54:48;99375.22;;;20.10;81.87
25722;BME280;13578;53.450;15.496;2023-05-23T10:58:17;99375.41;;;20.15;82.21
25722;BME280;13578;53.450;15.496;2023-05-23T11:01:19;99367.47;;;20.12;80.51
25722;BME280;13578;53.450;15.496;2023-05-23T11:04:27;99376.28;;;20.09;82.29
25722;BME280;13578;53.450;15.496;2023-05-23T11:10:30;99393.13;;;19.94;83.10
25722;BME280;13578;53.450;15.496;2023-05-23T11:16:52;99392.06;;;19.89;86.80
25722;BME280;13578;53.450;15.496;2023-05-23T11:23:01;99400.44;;;19.95;86.74
25722;BME280;13578;53.450;15.496;2023-05-23T11:26:02;99406.25;;;20.01;86.25
25722;BME280;13578;53.450;15.496;2023-05-23T11:29:07;99400.44;;;19.89;88.85
25722;BME280;13578;53.450;15.496;2023-05-23T11:32:11;99406.63;;;19.84;88.47
25722;BME280;13578;53.450;15.496;2023-05-23T11:35:12;99411.72;;;19.80;89.58
25722;BME280;13578;53.450;15.496;2023-05-23T11:38:14;99413.41;;;19.75;91.62
25722;BME280;13578;53.450;15.496;2023-05-23T11:41:16;99410.84;;;19.80;91.04
25722;BME280;13578;53.450;15.496;2023-05-23T11:44:16;99399.69;;;19.73;87.70
25722;BME280;13578;53.450;15.496;2023-05-23T11:47:17;99389.22;;;19.82;88.30
25722;BME280;13578;53.450;15.496;2023-05-23T11:50:18;99393.47;;;19.71;88.13
25722;BME280;13578;53.450;15.496;2023-05-23T11:53:21;99393.47;;;19.71;88.28
25722;BME280;13578;53.450;15.496;2023-05-23T11:56:24;99399.44;;;19.68;89.86
25722;BME280;13578;53.450;15.496;2023-05-23T11:59:26;99419.19;;;19.73;91.63
25722;BME280;13578;53.450;15.496;2023-05-23T12:02:27;99382.28;;;19.64;87.46
25722;BME280;13578;53.450;15.496;2023-05-23T12:05:28;99394.53;;;19.70;87.58
25722;BME280;13578;53.450;15.496;2023-05-23T12:08:28;99409.50;;;19.69;91.17
25722;BME280;13578;53.450;15.496;2023-05-23T12:11:33;99414.53;;;19.87;93.14
25722;BME280;13578;53.450;15.496;2023-05-23T12:14:34;99419.53;;;19.98;92.33
25722;BME280;13578;53.450;15.496;2023-05-23T12:17:42;99394.03;;;20.02;87.51
25722;BME280;13578;53.450;15.496;2023-05-23T12:20:44;99402.66;;;20.20;88.54
25722;BME280;13578;53.450;15.496;2023-05-23T12:23:44;99394.75;;;20.37;86.95
25722;BME280;13578;53.450;15.496;2023-05-23T12:26:49;99399.03;;;20.53;87.07
25722;BME280;13578;53.450;15.496;2023-05-23T12:29:50;99399.25;;;20.65;86.60
25722;BME280;13578;53.450;15.496;2023-05-23T12:32:51;99395.66;;;20.85;86.46
25722;BME280;13578;53.450;15.496;2023-05-23T12:35:52;99413.88;;;20.87;87.92
25722;BME280;13578;53.450;15.496;2023-05-23T12:38:52;99374.81;;;20.67;82.31
25722;BME280;13578;53.450;15.496;2023-05-23T12:41:54;99382.38;;;20.80;82.99
25722;BME280;13578;53.450;15.496;2023-05-23T12:44:58;99369.91;;;20.83;81.16
25722;BME280;13578;53.450;15.496;2023-05-23T12:48:00;99389.84;;;20.86;85.63
25722;BME280;13578;53.450;15.496;2023-05-23T12:51:01;99394.34;;;20.94;85.77
25722;BME280;13578;53.450;15.496;2023-05-23T12:54:03;99400.56;;;20.96;87.33
25722;BME280;13578;53.450;15.496;2023-05-23T12:57:03;99388.56;;;20.82;86.03
25722;BME280;13578;53.450;15.496;2023-05-23T13:00:05;99391.56;;;20.94;86.99
25722;BME280;13578;53.450;15.496;2023-05-23T13:03:05;99393.47;;;21.14;85.85
25722;BME280;13578;53.450;15.496;2023-05-23T13:06:06;99398.38;;;21.32;87.46
25722;BME280;13578;53.450;15.496;2023-05-23T13:09:07;99398.34;;;21.38;87.39
25722;BME280;13578;53.450;15.496;2023-05-23T13:12:08;99411.13;;;21.80;89.10
25722;BME280;13578;53.450;15.496;2023-05-23T13:15:09;99398.00;;;22.19;85.37
25722;BME280;13578;53.450;15.496;2023-05-23T13:18:11;99395.69;;;22.48;85.35
25722;BME280;13578;53.450;15.496;2023-05-23T13:21:12;99393.94;;;22.53;84.41
25722;BME280;13578;53.450;15.496;2023-05-23T13:24:12;99393.25;;;22.58;84.45
25722;BME280;13578;53.450;15.496;2023-05-23T13:27:13;99353.19;;;22.39;76.01
25722;BME280;13578;53.450;15.496;2023-05-23T13:30:14;99378.28;;;22.14;79.30
25722;BME280;13578;53.450;15.496;2023-05-23T13:33:14;99401.66;;;21.81;86.43
25722;BME280;13578;53.450;15.496;2023-05-23T13:36:15;99400.88;;;21.53;89.27
25722;BME280;13578;53.450;15.496;2023-05-23T13:39:16;99414.25;;;21.31;91.78
25722;BME280;13578;53.450;15.496;2023-05-23T13:42:16;99405.06;;;21.17;92.54
25722;BME280;13578;53.450;15.496;2023-05-23T13:45:17;99430.16;;;21.10;95.46
25722;BME280;13578;53.450;15.496;2023-05-23T13:48:18;99421.56;;;20.65;95.53
25722;BME280;13578;53.450;15.496;2023-05-23T13:51:19;99440.44;;;20.63;100.00
25722;BME280;13578;53.450;15.496;2023-05-23T13:54:20;99428.38;;;20.29;99.43
25722;BME280;13578;53.450;15.496;2023-05-23T13:57:20;99465.25;;;20.31;100.00
25722;BME280;13578;53.450;15.496;2023-05-23T14:00:21;99475.03;;;20.13;100.00
25722;BME280;13578;53.450;15.496;2023-05-23T14:03:22;99470.03;;;19.89;100.00
25722;BME280;13578;53.450;15.496;2023-05-23T14:06:23;99471.00;;;19.74;100.00
25722;BME280;13578;53.450;15.496;2023-05-23T14:09:24;99475.19;;;19.57;100.00
25722;BME280;13578;53.450;15.496;2023-05-23T14:12:25;99469.03;;;19.33;100.00
25722;BME280;13578;53.450;15.496;2023-05-23T14:15:25;99468.78;;;19.28;100.00
25722;BME280;13578;53.450;15.496;2023-05-23T14:18:27;99475.63;;;19.25;100.00
25722;BME280;13578;53.450;15.496;2023-05-23T14:21:28;99469.84;;;19.27;100.00
25722;BME280;13578;53.450;15.496;2023-05-23T14:24:28;99461.41;;;19.13;100.00
25722;BME280;13578;53.450;15.496;2023-05-23T14:27:31;99470.31;;;19.02;100.00
25722;BME280;13578;53.450;15.496;2023-05-23T14:30:31;99459.69;;;19.12;100.00
25722;BME280;13578;53.450;15.496;2023-05-23T14:33:32;99461.19;;;18.86;100.00
25722;BME280;13578;53.450;15.496;2023-05-23T14:36:33;99461.81;;;18.88;100.00
25722;BME280;13578;53.450;15.496;2023-05-23T14:39:36;99465.84;;;18.79;100.00
25722;BME280;13578;53.450;15.496;2023-05-23T14:42:36;99459.91;;;18.89;100.00
25722;BME280;13578;53.450;15.496;2023-05-23T14:45:37;99461.81;;;18.88;100.00
25722;BME280;13578;53.450;15.496;2023-05-23T14:48:37;99468.59;;;18.79;100.00
25722;BME280;13578;53.450;15.496;2023-05-23T14:51:38;99463.19;;;18.93;100.00
25722;BME280;13578;53.450;15.496;2023-05-23T14:54:39;99466.97;;;19.13;100.00
25722;BME280;13578;53.450;15.496;2023-05-23T14:57:42;99456.25;;;19.10;100.00
25722;BME280;13578;53.450;15.496;2023-05-23T15:00:43;99456.97;;;19.19;100.00
25722;BME280;13578;53.450;15.496;2023-05-23T15:03:46;99464.66;;;19.45;100.00
25722;BME280;13578;53.450;15.496;2023-05-23T15:06:47;99445.69;;;19.62;100.00
25722;BME280;13578;53.450;15.496;2023-05-23T15:09:49;99442.03;;;19.62;100.00
25722;BME280;13578;53.450;15.496;2023-05-23T15:12:50;99451.25;;;19.62;100.00
25722;BME280;13578;53.450;15.496;2023-05-23T15:15:51;99450.81;;;19.59;100.00
25722;BME280;13578;53.450;15.496;2023-05-23T15:18:53;99454.22;;;19.61;100.00
25722;BME280;13578;53.450;15.496;2023-05-23T15:21:53;99450.59;;;19.60;100.00
25722;BME280;13578;53.450;15.496;2023-05-23T15:24:54;99465.78;;;19.64;100.00
25722;BME280;13578;53.450;15.496;2023-05-23T15:27:55;99468.78;;;19.63;100.00
25722;BME280;13578;53.450;15.496;2023-05-23T15:30:56;99465.34;;;19.61;100.00
25722;BME280;13578;53.450;15.496;2023-05-23T15:33:58;99466.16;;;19.48;100.00
25722;BME280;13578;53.450;15.496;2023-05-23T15:36:58;99468.44;;;19.38;100.00
25722;BME280;13578;53.450;15.496;2023-05-23T15:39:59;99457.13;;;19.46;100.00
25722;BME280;13578;53.450;15.496;2023-05-23T15:43:00;99466.53;;;19.45;100.00
25722;BME280;13578;53.450;15.496;2023-05-23T15:46:00;99456.28;;;19.45;100.00
25722;BME280;13578;53.450;15.496;2023-05-23T15:49:01;99441.75;;;19.50;100.00
25722;BME280;13578;53.450;15.496;2023-05-23T15:52:02;99457.59;;;19.49;100.00
25722;BME280;13578;53.450;15.496;2023-05-23T15:55:03;99449.00;;;19.44;100.00
25722;BME280;13578;53.450;15.496;2023-05-23T15:58:04;99443.44;;;19.44;100.00
25722;BME280;13578;53.450;15.496;2023-05-23T16:01:05;99442.78;;;19.42;100.00
25722;BME280;13578;53.450;15.496;2023-05-23T16:04:06;99434.84;;;19.39;100.00
25722;BME280;13578;53.450;15.496;2023-05-23T16:07:06;99435.50;;;19.41;100.00